FW9346 Weather Reports


Display with metric or nautical units.
time (UTC)temp
F
wind
direction
speed
MPH
gust
MPH
rain 1hr
in
rain 24hr
in
rain mn
in
humidity
%
barometer
mb
20240619201548 66 138 6.0 12.0 0.00 0.54 0.02 82 1024.0
20240619200048 65 78 6.0 14.0 0.00 0.54 0.02 81 1024.4
20240619194552 67 52 9.0 17.0 0.00 0.54 0.02 74 1024.3
20240619193044 68 77 8.0 15.0 0.00 0.54 0.02 73 1024.1
20240619191546 67 51 8.0 16.0 0.00 0.54 0.02 71 1024.0
20240619190038 68 71 10.0 17.0 0.00 0.54 0.02 69 1024.0
20240619184543 68 61 11.0 16.0 0.00 0.54 0.02 70 1023.8
20240619183036 67 84 8.0 16.0 0.00 0.54 0.02 76 1024.0
20240619181543 66 69 7.0 13.0 0.00 0.54 0.02 78 1024.2
20240619180121 66 78 8.0 12.0 0.00 0.54 0.02 77 1024.1
20240619174541 66 32 7.0 12.0 0.00 0.54 0.02 76 1024.2
20240619173038 65 37 9.0 16.0 0.00 0.54 0.02 76 1023.8
20240619171541 65 74 7.0 13.0 0.00 0.54 0.02 77 1023.8
20240619170056 65 62 11.0 17.0 0.00 0.54 0.02 78 1023.6
20240619164544 65 61 6.0 13.0 0.00 0.54 0.02 80 1024.0
20240619163040 65 45 6.0 13.0 0.00 0.54 0.02 80 1023.8
20240619161547 64 55 8.0 13.0 0.00 0.54 0.02 80 1023.7
20240619160044 64 59 7.0 19.0 0.00 0.54 0.02 80 1023.5
20240619154543 64 56 8.0 16.0 0.00 0.54 0.02 80 1023.3
20240619153041 64 63 9.0 15.0 0.00 0.54 0.02 81 1022.9
20240619151544 64 52 10.0 16.0 0.00 0.54 0.02 81 1022.6
20240619150053 64 84 10.0 17.0 0.00 0.54 0.02 82 1022.3
20240619144546 63 86 11.0 19.0 0.01 0.54 0.02 84 1022.4
20240619143056 63 15 11.0 18.0 0.02 0.54 0.02 87 1022.5
20240619141535 62 85 8.0 13.0 0.02 0.54 0.02 89 1022.9
20240619140105 62 56 7.0 12.0 0.02 0.54 0.02 89 1023.1
20240619134542 62 23 5.0 11.0 0.01 0.52 0.01 88 1023.4
20240619133038 63 19 8.0 15.0 0.00 0.52 0.00 86 1023.5
20240619131543 63 17 6.0 11.0 0.00 0.52 0.00 86 1023.4
20240619130044 63 355 8.0 15.0 0.00 0.52 0.00 85 1022.9
20240619124542 63 351 10.0 16.0 0.00 0.52 0.00 83 1022.3
20240619123036 63 13 9.0 18.0 0.00 0.52 0.00 81 1021.8
20240619121546 63 60 9.0 19.0 0.00 0.52 0.00 80 1021.4
20240619120042 63 328 9.0 17.0 0.00 0.52 0.00 81 1021.2
20240619114538 63 45 10.0 20.0 0.00 0.52 0.00 82 1020.7
20240619113040 63 63 9.0 17.0 0.00 0.52 0.00 82 1020.4
20240619111538 63 92 11.0 19.0 0.00 0.52 0.00 81 1020.1
20240619110035 63 49 11.0 20.0 0.00 0.52 0.00 81 1019.9
20240619104539 63 60 12.0 25.0 0.00 0.52 0.00 81 1019.8
20240619103034 63 42 14.0 22.0 0.00 0.52 0.00 81 1019.8
20240619101537 63 81 7.0 16.0 0.00 0.52 0.00 85 1019.5
20240619100047 63 69 8.0 18.0 0.00 0.52 0.00 85 1019.3
20240619094534 63 67 12.0 18.0 0.00 0.52 0.00 85 1018.7
20240619093040 63 63 8.0 13.0 0.00 0.52 0.00 85 1018.4
20240619091534 63 45 8.0 14.0 0.00 0.52 0.00 85 1018.5
20240619090035 63 75 7.0 18.0 0.00 0.52 0.00 86 1018.3
20240619084535 63 51 10.0 17.0 0.00 0.52 0.00 87 1018.2
20240619083039 63 61 10.0 18.0 0.00 0.52 0.00 88 1018.1
20240619081537 63 64 11.0 16.0 0.00 0.52 0.00 89 1017.9
20240619080035 63 75 12.0 19.0 0.00 0.52 0.00 90 1017.4
20240619074536 63 73 10.0 16.0 0.00 0.52 0.00 91 1017.6
20240619073038 63 52 10.0 15.0 0.00 0.52 0.00 91 1017.4
20240619071546 63 75 8.0 13.0 0.00 0.52 0.00 91 1017.3
20240619070056 63 46 8.0 17.0 0.00 0.52 0.00 91 1017.3
20240619064537 63 86 9.0 17.0 0.00 0.52 0.00 91 1016.7
20240619063040 63 67 8.0 17.0 0.00 0.52 0.00 90 1016.8
20240619061532 63 60 10.0 17.0 0.00 0.52 0.00 90 1016.8
20240619060042 63 88 10.0 17.0 0.00 0.52 0.00 90 1017.0
20240619054539 63 49 12.0 16.0 0.00 0.52 0.00 90 1016.3
20240619053038 63 47 10.0 17.0 0.00 0.52 0.00 90 1015.7
20240619051533 63 71 10.0 17.0 0.00 0.52 0.00 90 1015.5
20240619050042 63 69 11.0 18.0 0.00 0.52 0.00 89 1014.8
20240619044536 64 24 10.0 16.0 0.00 0.52 0.52 89 1014.5
20240619043048 64 42 12.0 19.0 0.00 0.52 0.52 88 1014.1
20240619041539 64 30 12.0 21.0 0.00 0.52 0.52 89 1014.0
20240619040043 64 28 10.0 18.0 0.00 0.52 0.52 90 1013.8
20240619034538 64 355 9.0 23.0 0.00 0.52 0.52 91 1013.4
20240619033038 64 74 12.0 20.0 0.00 0.52 0.52 92 1013.2
20240619031543 64 46 9.0 18.0 0.00 0.52 0.52 93 1013.4
20240619030036 64 26 7.0 14.0 0.00 0.52 0.52 93 1012.9
20240619024540 64 34 11.0 16.0 0.00 0.52 0.52 93 1012.9
20240619023042 64 66 8.0 12.0 0.00 0.52 0.52 93 1012.6
20240619021543 64 18 7.0 14.0 0.00 0.52 0.52 92 1012.8
20240619020036 64 44 6.0 11.0 0.00 0.52 0.52 92 1012.9
20240619014538 65 5 8.0 13.0 0.00 0.52 0.52 92 1011.9
20240619013038 65 28 14.0 22.0 0.00 0.52 0.52 93 1011.0
20240619011539 65 37 12.0 17.0 0.00 0.52 0.52 93 1010.6
20240619010035 66 323 3.0 10.0 0.00 0.52 0.52 93 1011.4
20240619004553 66 92 8.0 12.0 0.00 0.52 0.52 93 1010.0
20240619003039 66 22 11.0 17.0 0.00 0.52 0.52 93 1008.9
20240619001534 67 35 6.0 15.0 0.01 0.52 0.52 94 1010.0
20240619000101 67 63 7.0 13.0 0.01 0.52 0.52 93 1009.7
20240618234550 67 44 7.0 17.0 0.01 0.52 0.52 93 1009.4
20240618233047 68 331 5.0 15.0 0.13 0.52 0.52 93 1009.1
20240618231543 67 271 2.0 6.0 0.37 0.51 0.51 93 1009.1
20240618230040 66 115 2.0 4.0 0.51 0.51 0.51 92 1008.5
20240618224544 66 116 3.0 8.0 0.51 0.51 0.51 90 1007.6
20240618223039 67 59 4.0 19.0 0.37 0.37 0.37 86 1007.5
20240618221541 69 309 19.0 27.0 0.12 0.12 0.12 82 1009.4
20240618220039 81 68 10.0 27.0 0.00 0.00 0.00 68 1007.2
20240618214535 84 202 12.0 30.0 0.00 0.00 0.00 71 1006.2
20240618213036 84 175 16.0 28.0 0.00 0.00 0.00 71 1005.6
20240618211539 84 214 16.0 32.0 0.00 0.00 0.00 70 1005.9
20240618210051 85 121 19.0 37.0 0.00 0.00 0.00 70 1005.8
20240618204553 85 128 18.0 34.0 0.00 0.00 0.00 70 1005.5
20240618203038 87 148 21.0 37.0 0.00 0.00 0.00 68 1004.5